sensor_id;sensor_type;location;lat;lon;timestamp;P1;durP1;ratioP1;P2;durP2;ratioP2
74898;SDS011;63458;48.210;16.338;2023-04-25T00:00:17;3.83;;;2.20;;
74898;SDS011;63458;48.210;16.338;2023-04-25T00:02:43;4.00;;;2.10;;
74898;SDS011;63458;48.210;16.338;2023-04-25T00:05:09;5.22;;;2.25;;
74898;SDS011;63458;48.210;16.338;2023-04-25T00:07:35;4.10;;;1.98;;
74898;SDS011;63458;48.210;16.338;2023-04-25T00:10:02;5.07;;;1.80;;
74898;SDS011;63458;48.210;16.338;2023-04-25T00:12:28;5.68;;;2.30;;
74898;SDS011;63458;48.210;16.338;2023-04-25T00:14:54;5.20;;;2.17;;
74898;SDS011;63458;48.210;16.338;2023-04-25T00:17:22;4.85;;;2.25;;
74898;SDS011;63458;48.210;16.338;2023-04-25T00:19:49;4.53;;;2.05;;
74898;SDS011;63458;48.210;16.338;2023-04-25T00:22:15;4.65;;;2.38;;
74898;SDS011;63458;48.210;16.338;2023-04-25T00:24:42;6.07;;;2.58;;
74898;SDS011;63458;48.210;16.338;2023-04-25T00:27:08;4.10;;;1.98;;
74898;SDS011;63458;48.210;16.338;2023-04-25T00:29:34;5.18;;;2.13;;
74898;SDS011;63458;48.210;16.338;2023-04-25T00:32:00;5.10;;;2.20;;
74898;SDS011;63458;48.210;16.338;2023-04-25T00:34:26;5.45;;;2.08;;
74898;SDS011;63458;48.210;16.338;2023-04-25T00:36:52;4.55;;;2.30;;
74898;SDS011;63458;48.210;16.338;2023-04-25T00:39:18;4.38;;;2.15;;
74898;SDS011;63458;48.210;16.338;2023-04-25T00:41:45;5.00;;;2.40;;
74898;SDS011;63458;48.210;16.338;2023-04-25T00:44:11;3.95;;;2.05;;
74898;SDS011;63458;48.210;16.338;2023-04-25T00:46:38;5.70;;;2.20;;
74898;SDS011;63458;48.210;16.338;2023-04-25T00:49:05;5.78;;;3.38;;
74898;SDS011;63458;48.210;16.338;2023-04-25T00:51:31;4.75;;;2.53;;
74898;SDS011;63458;48.210;16.338;2023-04-25T00:53:59;5.57;;;2.30;;
74898;SDS011;63458;48.210;16.338;2023-04-25T00:56:25;4.45;;;2.38;;
74898;SDS011;63458;48.210;16.338;2023-04-25T00:58:52;5.00;;;2.47;;
74898;SDS011;63458;48.210;16.338;2023-04-25T01:01:22;4.55;;;2.00;;
74898;SDS011;63458;48.210;16.338;2023-04-25T01:03:48;4.93;;;2.53;;
74898;SDS011;63458;48.210;16.338;2023-04-25T01:11:07;6.15;;;2.72;;
74898;SDS011;63458;48.210;16.338;2023-04-25T01:13:34;5.45;;;2.58;;
74898;SDS011;63458;48.210;16.338;2023-04-25T01:16:01;5.60;;;2.70;;
74898;SDS011;63458;48.210;16.338;2023-04-25T01:18:27;5.53;;;2.50;;
74898;SDS011;63458;48.210;16.338;2023-04-25T01:20:53;5.85;;;3.15;;
74898;SDS011;63458;48.210;16.338;2023-04-25T01:23:22;5.45;;;2.65;;
74898;SDS011;63458;48.210;16.338;2023-04-25T01:25:49;5.78;;;2.60;;
74898;SDS011;63458;48.210;16.338;2023-04-25T01:28:15;5.93;;;2.72;;
74898;SDS011;63458;48.210;16.338;2023-04-25T01:30:41;5.38;;;2.47;;
74898;SDS011;63458;48.210;16.338;2023-04-25T01:33:08;6.38;;;2.65;;
74898;SDS011;63458;48.210;16.338;2023-04-25T01:35:34;6.63;;;3.05;;
74898;SDS011;63458;48.210;16.338;2023-04-25T01:38:00;4.95;;;2.25;;
74898;SDS011;63458;48.210;16.338;2023-04-25T01:40:27;6.85;;;2.53;;
74898;SDS011;63458;48.210;16.338;2023-04-25T01:42:53;5.55;;;2.50;;
74898;SDS011;63458;48.210;16.338;2023-04-25T01:45:19;4.85;;;2.40;;
74898;SDS011;63458;48.210;16.338;2023-04-25T01:47:46;4.38;;;2.47;;
74898;SDS011;63458;48.210;16.338;2023-04-25T01:50:14;5.25;;;3.17;;
74898;SDS011;63458;48.210;16.338;2023-04-25T01:52:40;5.35;;;2.47;;
74898;SDS011;63458;48.210;16.338;2023-04-25T01:55:06;3.72;;;2.10;;
74898;SDS011;63458;48.210;16.338;2023-04-25T01:57:32;3.85;;;2.08;;
74898;SDS011;63458;48.210;16.338;2023-04-25T01:59:59;5.22;;;2.72;;
74898;SDS011;63458;48.210;16.338;2023-04-25T02:02:26;5.10;;;2.58;;
74898;SDS011;63458;48.210;16.338;2023-04-25T02:04:52;5.07;;;2.50;;
74898;SDS011;63458;48.210;16.338;2023-04-25T02:07:19;5.30;;;2.90;;
74898;SDS011;63458;48.210;16.338;2023-04-25T02:09:45;4.65;;;2.55;;
74898;SDS011;63458;48.210;16.338;2023-04-25T02:12:11;5.78;;;2.60;;
74898;SDS011;63458;48.210;16.338;2023-04-25T02:14:37;5.85;;;3.20;;
74898;SDS011;63458;48.210;16.338;2023-04-25T02:17:03;6.07;;;3.15;;
74898;SDS011;63458;48.210;16.338;2023-04-25T02:19:30;5.55;;;3.13;;
74898;SDS011;63458;48.210;16.338;2023-04-25T02:21:56;5.70;;;2.67;;
74898;SDS011;63458;48.210;16.338;2023-04-25T02:24:23;4.53;;;2.28;;
74898;SDS011;63458;48.210;16.338;2023-04-25T02:26:49;5.78;;;3.10;;
74898;SDS011;63458;48.210;16.338;2023-04-25T02:29:15;5.63;;;3.00;;
74898;SDS011;63458;48.210;16.338;2023-04-25T02:31:41;5.82;;;3.03;;
74898;SDS011;63458;48.210;16.338;2023-04-25T02:34:07;6.15;;;2.78;;
74898;SDS011;63458;48.210;16.338;2023-04-25T02:36:33;5.05;;;2.85;;
74898;SDS011;63458;48.210;16.338;2023-04-25T02:39:00;5.95;;;3.58;;
74898;SDS011;63458;48.210;16.338;2023-04-25T02:41:27;5.35;;;2.47;;
74898;SDS011;63458;48.210;16.338;2023-04-25T02:43:53;5.15;;;2.67;;
74898;SDS011;63458;48.210;16.338;2023-04-25T02:46:20;5.65;;;2.80;;
74898;SDS011;63458;48.210;16.338;2023-04-25T02:48:46;6.00;;;3.17;;
74898;SDS011;63458;48.210;16.338;2023-04-25T02:51:12;5.50;;;2.70;;
74898;SDS011;63458;48.210;16.338;2023-04-25T02:53:38;6.50;;;3.45;;
74898;SDS011;63458;48.210;16.338;2023-04-25T02:56:04;6.38;;;3.10;;
74898;SDS011;63458;48.210;16.338;2023-04-25T02:58:31;5.72;;;2.88;;
74898;SDS011;63458;48.210;16.338;2023-04-25T03:00:57;4.43;;;2.50;;
74898;SDS011;63458;48.210;16.338;2023-04-25T03:03:23;6.03;;;2.90;;
74898;SDS011;63458;48.210;16.338;2023-04-25T03:05:49;5.72;;;3.15;;
74898;SDS011;63458;48.210;16.338;2023-04-25T03:08:16;4.90;;;2.63;;
74898;SDS011;63458;48.210;16.338;2023-04-25T03:10:42;7.07;;;2.58;;
74898;SDS011;63458;48.210;16.338;2023-04-25T03:13:08;6.40;;;2.60;;
74898;SDS011;63458;48.210;16.338;2023-04-25T03:15:34;5.82;;;2.42;;
74898;SDS011;63458;48.210;16.338;2023-04-25T03:18:01;6.80;;;2.97;;
74898;SDS011;63458;48.210;16.338;2023-04-25T03:20:27;6.15;;;3.30;;
74898;SDS011;63458;48.210;16.338;2023-04-25T03:22:53;5.85;;;3.03;;
74898;SDS011;63458;48.210;16.338;2023-04-25T03:25:19;6.45;;;3.13;;
74898;SDS011;63458;48.210;16.338;2023-04-25T03:27:45;6.70;;;2.88;;
74898;SDS011;63458;48.210;16.338;2023-04-25T03:30:11;6.75;;;3.10;;
74898;SDS011;63458;48.210;16.338;2023-04-25T03:32:37;5.63;;;2.83;;
74898;SDS011;63458;48.210;16.338;2023-04-25T03:35:03;5.57;;;2.83;;
74898;SDS011;63458;48.210;16.338;2023-04-25T03:37:30;5.80;;;3.00;;
74898;SDS011;63458;48.210;16.338;2023-04-25T03:39:56;6.15;;;2.63;;
74898;SDS011;63458;48.210;16.338;2023-04-25T03:42:22;6.47;;;3.03;;
74898;SDS011;63458;48.210;16.338;2023-04-25T03:44:48;7.50;;;3.10;;
74898;SDS011;63458;48.210;16.338;2023-04-25T03:47:15;6.47;;;3.10;;
74898;SDS011;63458;48.210;16.338;2023-04-25T03:49:41;6.07;;;2.80;;
74898;SDS011;63458;48.210;16.338;2023-04-25T03:52:07;5.50;;;2.88;;
74898;SDS011;63458;48.210;16.338;2023-04-25T03:54:33;5.60;;;2.63;;
74898;SDS011;63458;48.210;16.338;2023-04-25T03:56:59;5.88;;;2.88;;
74898;SDS011;63458;48.210;16.338;2023-04-25T03:59:25;6.35;;;3.28;;
74898;SDS011;63458;48.210;16.338;2023-04-25T04:01:51;5.72;;;2.70;;
74898;SDS011;63458;48.210;16.338;2023-04-25T04:04:18;6.00;;;2.80;;
74898;SDS011;63458;48.210;16.338;2023-04-25T04:06:44;5.35;;;2.83;;
74898;SDS011;63458;48.210;16.338;2023-04-25T04:09:10;6.80;;;2.90;;
74898;SDS011;63458;48.210;16.338;2023-04-25T04:11:37;6.50;;;3.47;;
74898;SDS011;63458;48.210;16.338;2023-04-25T04:14:07;5.90;;;3.10;;
74898;SDS011;63458;48.210;16.338;2023-04-25T04:16:35;6.20;;;3.00;;
74898;SDS011;63458;48.210;16.338;2023-04-25T04:19:01;5.60;;;2.78;;
74898;SDS011;63458;48.210;16.338;2023-04-25T04:21:27;8.20;;;3.25;;
74898;SDS011;63458;48.210;16.338;2023-04-25T04:23:53;5.10;;;2.70;;
74898;SDS011;63458;48.210;16.338;2023-04-25T04:26:19;6.95;;;2.63;;
74898;SDS011;63458;48.210;16.338;2023-04-25T04:28:48;6.78;;;2.80;;
74898;SDS011;63458;48.210;16.338;2023-04-25T04:31:15;5.55;;;2.80;;
74898;SDS011;63458;48.210;16.338;2023-04-25T04:33:44;9.25;;;4.50;;
74898;SDS011;63458;48.210;16.338;2023-04-25T04:36:10;7.65;;;3.65;;
74898;SDS011;63458;48.210;16.338;2023-04-25T04:38:36;6.47;;;3.28;;
74898;SDS011;63458;48.210;16.338;2023-04-25T04:41:02;4.93;;;2.65;;
74898;SDS011;63458;48.210;16.338;2023-04-25T04:43:28;5.53;;;2.80;;
74898;SDS011;63458;48.210;16.338;2023-04-25T04:45:55;6.55;;;3.33;;
74898;SDS011;63458;48.210;16.338;2023-04-25T04:48:24;4.85;;;2.33;;
74898;SDS011;63458;48.210;16.338;2023-04-25T04:50:51;7.65;;;3.58;;
74898;SDS011;63458;48.210;16.338;2023-04-25T04:53:17;6.18;;;2.70;;
74898;SDS011;63458;48.210;16.338;2023-04-25T04:55:43;6.35;;;3.22;;
74898;SDS011;63458;48.210;16.338;2023-04-25T04:58:09;6.25;;;3.13;;
74898;SDS011;63458;48.210;16.338;2023-04-25T05:00:35;6.03;;;3.17;;
74898;SDS011;63458;48.210;16.338;2023-04-25T05:03:01;6.18;;;3.00;;
74898;SDS011;63458;48.210;16.338;2023-04-25T05:05:27;5.80;;;3.17;;
74898;SDS011;63458;48.210;16.338;2023-04-25T05:07:53;6.03;;;2.80;;
74898;SDS011;63458;48.210;16.338;2023-04-25T05:10:19;6.00;;;3.08;;
74898;SDS011;63458;48.210;16.338;2023-04-25T05:12:45;7.63;;;3.10;;
74898;SDS011;63458;48.210;16.338;2023-04-25T05:15:11;6.43;;;3.13;;
74898;SDS011;63458;48.210;16.338;2023-04-25T05:17:37;5.65;;;2.85;;
74898;SDS011;63458;48.210;16.338;2023-04-25T05:20:04;5.55;;;3.08;;
74898;SDS011;63458;48.210;16.338;2023-04-25T05:22:31;7.82;;;3.78;;
74898;SDS011;63458;48.210;16.338;2023-04-25T05:24:57;7.15;;;3.90;;
74898;SDS011;63458;48.210;16.338;2023-04-25T05:27:23;6.53;;;3.70;;
74898;SDS011;63458;48.210;16.338;2023-04-25T05:29:49;6.82;;;3.40;;
74898;SDS011;63458;48.210;16.338;2023-04-25T05:32:16;6.30;;;3.15;;
74898;SDS011;63458;48.210;16.338;2023-04-25T05:34:42;6.63;;;3.95;;
74898;SDS011;63458;48.210;16.338;2023-04-25T05:37:09;6.10;;;3.30;;
74898;SDS011;63458;48.210;16.338;2023-04-25T05:39:35;6.93;;;3.67;;
74898;SDS011;63458;48.210;16.338;2023-04-25T05:42:01;5.75;;;2.88;;
74898;SDS011;63458;48.210;16.338;2023-04-25T05:44:28;6.68;;;3.80;;
74898;SDS011;63458;48.210;16.338;2023-04-25T05:46:54;6.72;;;3.72;;
74898;SDS011;63458;48.210;16.338;2023-04-25T05:49:20;5.88;;;3.30;;
74898;SDS011;63458;48.210;16.338;2023-04-25T05:51:46;7.70;;;4.18;;
74898;SDS011;63458;48.210;16.338;2023-04-25T05:54:12;6.13;;;3.22;;
74898;SDS011;63458;48.210;16.338;2023-04-25T05:56:38;6.28;;;3.20;;
74898;SDS011;63458;48.210;16.338;2023-04-25T05:59:04;19.83;;;12.48;;
74898;SDS011;63458;48.210;16.338;2023-04-25T06:01:31;25.55;;;17.25;;
74898;SDS011;63458;48.210;16.338;2023-04-25T06:03:57;22.33;;;14.73;;
74898;SDS011;63458;48.210;16.338;2023-04-25T06:06:23;17.27;;;10.48;;
74898;SDS011;63458;48.210;16.338;2023-04-25T06:08:49;24.10;;;15.13;;
74898;SDS011;63458;48.210;16.338;2023-04-25T06:11:15;11.05;;;6.25;;
74898;SDS011;63458;48.210;16.338;2023-04-25T06:13:41;8.75;;;5.18;;
74898;SDS011;63458;48.210;16.338;2023-04-25T06:16:07;10.52;;;6.07;;
74898;SDS011;63458;48.210;16.338;2023-04-25T06:18:33;8.95;;;5.15;;
74898;SDS011;63458;48.210;16.338;2023-04-25T06:21:00;8.88;;;4.40;;
74898;SDS011;63458;48.210;16.338;2023-04-25T06:23:26;8.48;;;4.75;;
74898;SDS011;63458;48.210;16.338;2023-04-25T06:25:52;7.00;;;3.45;;
74898;SDS011;63458;48.210;16.338;2023-04-25T06:28:18;8.45;;;4.10;;
74898;SDS011;63458;48.210;16.338;2023-04-25T06:30:46;7.82;;;3.67;;
74898;SDS011;63458;48.210;16.338;2023-04-25T06:33:12;8.05;;;3.50;;
74898;SDS011;63458;48.210;16.338;2023-04-25T06:35:39;6.90;;;3.60;;
74898;SDS011;63458;48.210;16.338;2023-04-25T06:38:05;8.35;;;4.03;;
74898;SDS011;63458;48.210;16.338;2023-04-25T06:40:31;7.07;;;3.70;;
74898;SDS011;63458;48.210;16.338;2023-04-25T06:42:56;7.30;;;3.60;;
74898;SDS011;63458;48.210;16.338;2023-04-25T06:45:23;6.43;;;3.58;;
74898;SDS011;63458;48.210;16.338;2023-04-25T06:47:48;6.43;;;3.30;;
74898;SDS011;63458;48.210;16.338;2023-04-25T06:50:15;6.47;;;3.10;;
74898;SDS011;63458;48.210;16.338;2023-04-25T06:52:40;5.78;;;3.33;;
74898;SDS011;63458;48.210;16.338;2023-04-25T06:55:07;6.85;;;3.05;;
74898;SDS011;63458;48.210;16.338;2023-04-25T06:57:33;6.80;;;3.10;;
74898;SDS011;63458;48.210;16.338;2023-04-25T06:59:59;5.55;;;3.17;;
74898;SDS011;63458;48.210;16.338;2023-04-25T07:02:25;6.60;;;3.15;;
74898;SDS011;63458;48.210;16.338;2023-04-25T07:04:51;5.60;;;3.22;;
74898;SDS011;63458;48.210;16.338;2023-04-25T07:07:17;6.35;;;2.70;;
74898;SDS011;63458;48.210;16.338;2023-04-25T07:09:43;5.55;;;3.03;;
74898;SDS011;63458;48.210;16.338;2023-04-25T07:12:09;7.10;;;3.30;;
74898;SDS011;63458;48.210;16.338;2023-04-25T07:14:35;6.15;;;3.25;;
74898;SDS011;63458;48.210;16.338;2023-04-25T07:17:01;6.28;;;3.42;;
74898;SDS011;63458;48.210;16.338;2023-04-25T07:19:27;6.82;;;3.35;;
74898;SDS011;63458;48.210;16.338;2023-04-25T07:21:54;6.22;;;2.97;;
74898;SDS011;63458;48.210;16.338;2023-04-25T07:24:20;6.28;;;2.97;;
74898;SDS011;63458;48.210;16.338;2023-04-25T07:26:46;6.25;;;3.08;;
74898;SDS011;63458;48.210;16.338;2023-04-25T07:29:12;7.95;;;3.60;;
74898;SDS011;63458;48.210;16.338;2023-04-25T07:31:38;8.32;;;3.55;;
74898;SDS011;63458;48.210;16.338;2023-04-25T07:34:05;5.25;;;2.95;;
74898;SDS011;63458;48.210;16.338;2023-04-25T07:36:31;6.15;;;3.03;;
74898;SDS011;63458;48.210;16.338;2023-04-25T07:38:57;5.28;;;3.10;;
74898;SDS011;63458;48.210;16.338;2023-04-25T07:41:23;5.20;;;2.83;;
74898;SDS011;63458;48.210;16.338;2023-04-25T07:43:49;6.25;;;2.90;;
74898;SDS011;63458;48.210;16.338;2023-04-25T07:46:15;6.63;;;2.88;;
74898;SDS011;63458;48.210;16.338;2023-04-25T07:48:41;6.22;;;2.97;;
74898;SDS011;63458;48.210;16.338;2023-04-25T07:51:07;5.93;;;3.17;;
74898;SDS011;63458;48.210;16.338;2023-04-25T07:53:33;5.72;;;2.90;;
74898;SDS011;63458;48.210;16.338;2023-04-25T07:58:26;7.20;;;2.85;;
74898;SDS011;63458;48.210;16.338;2023-04-25T08:00:52;7.60;;;3.38;;
74898;SDS011;63458;48.210;16.338;2023-04-25T08:03:18;6.40;;;3.78;;
74898;SDS011;63458;48.210;16.338;2023-04-25T08:05:45;7.05;;;3.03;;
74898;SDS011;63458;48.210;16.338;2023-04-25T08:08:11;6.28;;;2.95;;
74898;SDS011;63458;48.210;16.338;2023-04-25T08:10:37;7.55;;;3.08;;
74898;SDS011;63458;48.210;16.338;2023-04-25T08:13:04;5.25;;;3.13;;
74898;SDS011;63458;48.210;16.338;2023-04-25T08:15:30;7.03;;;3.15;;
74898;SDS011;63458;48.210;16.338;2023-04-25T08:17:56;5.82;;;2.85;;
74898;SDS011;63458;48.210;16.338;2023-04-25T08:20:22;7.13;;;3.78;;
74898;SDS011;63458;48.210;16.338;2023-04-25T08:22:48;6.60;;;3.30;;
74898;SDS011;63458;48.210;16.338;2023-04-25T08:25:14;6.13;;;2.95;;
74898;SDS011;63458;48.210;16.338;2023-04-25T08:27:40;6.07;;;3.30;;
74898;SDS011;63458;48.210;16.338;2023-04-25T08:30:06;5.10;;;2.72;;
74898;SDS011;63458;48.210;16.338;2023-04-25T08:32:33;9.80;;;3.03;;
74898;SDS011;63458;48.210;16.338;2023-04-25T08:35:02;7.97;;;3.00;;
74898;SDS011;63458;48.210;16.338;2023-04-25T08:37:29;5.22;;;2.65;;
74898;SDS011;63458;48.210;16.338;2023-04-25T08:39:55;5.80;;;2.85;;
74898;SDS011;63458;48.210;16.338;2023-04-25T08:42:21;7.25;;;2.88;;
74898;SDS011;63458;48.210;16.338;2023-04-25T08:44:48;6.50;;;3.13;;
74898;SDS011;63458;48.210;16.338;2023-04-25T08:47:15;11.65;;;7.53;;
74898;SDS011;63458;48.210;16.338;2023-04-25T08:49:43;7.22;;;4.10;;
74898;SDS011;63458;48.210;16.338;2023-04-25T08:52:11;6.30;;;3.10;;
74898;SDS011;63458;48.210;16.338;2023-04-25T08:54:40;7.68;;;4.05;;
74898;SDS011;63458;48.210;16.338;2023-04-25T08:57:08;6.75;;;3.38;;
74898;SDS011;63458;48.210;16.338;2023-04-25T08:59:34;6.38;;;2.50;;
74898;SDS011;63458;48.210;16.338;2023-04-25T09:02:02;7.05;;;2.60;;
74898;SDS011;63458;48.210;16.338;2023-04-25T09:04:30;6.38;;;2.97;;
74898;SDS011;63458;48.210;16.338;2023-04-25T09:06:56;5.70;;;2.83;;
74898;SDS011;63458;48.210;16.338;2023-04-25T09:09:23;9.73;;;5.00;;
74898;SDS011;63458;48.210;16.338;2023-04-25T09:11:49;14.40;;;7.65;;
74898;SDS011;63458;48.210;16.338;2023-04-25T09:21:58;9.70;;;4.70;;
74898;SDS011;63458;48.210;16.338;2023-04-25T09:26:57;7.82;;;4.55;;
74898;SDS011;63458;48.210;16.338;2023-04-25T09:29:32;7.68;;;3.75;;
74898;SDS011;63458;48.210;16.338;2023-04-25T09:32:10;6.85;;;3.42;;
74898;SDS011;63458;48.210;16.338;2023-04-25T09:34:40;7.88;;;4.40;;
74898;SDS011;63458;48.210;16.338;2023-04-25T09:37:09;7.82;;;3.75;;
74898;SDS011;63458;48.210;16.338;2023-04-25T09:39:38;6.97;;;3.47;;
74898;SDS011;63458;48.210;16.338;2023-04-25T09:42:05;6.43;;;3.63;;
74898;SDS011;63458;48.210;16.338;2023-04-25T09:44:31;7.60;;;4.07;;
74898;SDS011;63458;48.210;16.338;2023-04-25T09:46:57;6.70;;;3.20;;
74898;SDS011;63458;48.210;16.338;2023-04-25T09:49:24;5.65;;;2.80;;
74898;SDS011;63458;48.210;16.338;2023-04-25T09:51:57;6.28;;;2.75;;
74898;SDS011;63458;48.210;16.338;2023-04-25T09:54:26;5.47;;;2.45;;
74898;SDS011;63458;48.210;16.338;2023-04-25T09:56:52;4.97;;;2.28;;
74898;SDS011;63458;48.210;16.338;2023-04-25T09:59:21;4.10;;;2.22;;
74898;SDS011;63458;48.210;16.338;2023-04-25T10:01:48;3.00;;;1.90;;
74898;SDS011;63458;48.210;16.338;2023-04-25T10:04:16;5.22;;;1.80;;
74898;SDS011;63458;48.210;16.338;2023-04-25T10:06:45;4.85;;;2.20;;
74898;SDS011;63458;48.210;16.338;2023-04-25T10:09:12;5.53;;;2.10;;
74898;SDS011;63458;48.210;16.338;2023-04-25T10:11:38;4.85;;;2.00;;
74898;SDS011;63458;48.210;16.338;2023-04-25T10:14:05;3.63;;;1.80;;
74898;SDS011;63458;48.210;16.338;2023-04-25T10:16:31;4.00;;;1.90;;
74898;SDS011;63458;48.210;16.338;2023-04-25T10:18:58;4.97;;;2.20;;
74898;SDS011;63458;48.210;16.338;2023-04-25T10:21:24;4.38;;;2.17;;
74898;SDS011;63458;48.210;16.338;2023-04-25T10:23:51;4.60;;;1.80;;
74898;SDS011;63458;48.210;16.338;2023-04-25T10:26:18;4.20;;;1.83;;
74898;SDS011;63458;48.210;16.338;2023-04-25T10:29:00;5.50;;;2.25;;
74898;SDS011;63458;48.210;16.338;2023-04-25T10:31:26;4.65;;;1.83;;
74898;SDS011;63458;48.210;16.338;2023-04-25T10:33:53;3.38;;;1.70;;
74898;SDS011;63458;48.210;16.338;2023-04-25T10:36:20;4.55;;;1.90;;
74898;SDS011;63458;48.210;16.338;2023-04-25T10:38:47;5.15;;;1.77;;
74898;SDS011;63458;48.210;16.338;2023-04-25T10:41:13;3.75;;;1.92;;
74898;SDS011;63458;48.210;16.338;2023-04-25T10:43:40;3.13;;;1.80;;
74898;SDS011;63458;48.210;16.338;2023-04-25T10:48:33;2.53;;;1.42;;
74898;SDS011;63458;48.210;16.338;2023-04-25T10:51:09;6.18;;;2.00;;
74898;SDS011;63458;48.210;16.338;2023-04-25T10:53:35;2.58;;;1.55;;
74898;SDS011;63458;48.210;16.338;2023-04-25T10:56:18;3.38;;;1.95;;
74898;SDS011;63458;48.210;16.338;2023-04-25T10:58:45;3.55;;;1.70;;
74898;SDS011;63458;48.210;16.338;2023-04-25T11:01:12;3.38;;;1.90;;
74898;SDS011;63458;48.210;16.338;2023-04-25T11:03:42;3.15;;;1.65;;
74898;SDS011;63458;48.210;16.338;2023-04-25T11:06:11;5.65;;;1.85;;
74898;SDS011;63458;48.210;16.338;2023-04-25T11:08:47;3.67;;;2.08;;
74898;SDS011;63458;48.210;16.338;2023-04-25T11:13:40;5.03;;;2.50;;
74898;SDS011;63458;48.210;16.338;2023-04-25T11:16:09;5.82;;;2.03;;
74898;SDS011;63458;48.210;16.338;2023-04-25T11:18:35;4.93;;;2.05;;
74898;SDS011;63458;48.210;16.338;2023-04-25T11:21:03;5.57;;;2.78;;
74898;SDS011;63458;48.210;16.338;2023-04-25T11:23:30;3.78;;;2.05;;
74898;SDS011;63458;48.210;16.338;2023-04-25T11:25:56;5.40;;;2.15;;
74898;SDS011;63458;48.210;16.338;2023-04-25T11:28:22;5.18;;;2.53;;
74898;SDS011;63458;48.210;16.338;2023-04-25T11:30:48;4.05;;;2.08;;
74898;SDS011;63458;48.210;16.338;2023-04-25T11:33:18;5.90;;;2.33;;
74898;SDS011;63458;48.210;16.338;2023-04-25T11:35:48;5.28;;;2.90;;
74898;SDS011;63458;48.210;16.338;2023-04-25T11:38:14;4.90;;;2.22;;
74898;SDS011;63458;48.210;16.338;2023-04-25T11:40:40;4.68;;;2.30;;
74898;SDS011;63458;48.210;16.338;2023-04-25T11:43:06;5.80;;;2.70;;
74898;SDS011;63458;48.210;16.338;2023-04-25T11:45:32;6.45;;;2.63;;
74898;SDS011;63458;48.210;16.338;2023-04-25T11:47:58;6.10;;;2.83;;
74898;SDS011;63458;48.210;16.338;2023-04-25T11:50:24;5.15;;;2.83;;
74898;SDS011;63458;48.210;16.338;2023-04-25T11:52:55;5.75;;;2.45;;
74898;SDS011;63458;48.210;16.338;2023-04-25T11:55:22;5.47;;;2.42;;
74898;SDS011;63458;48.210;16.338;2023-04-25T11:57:48;5.13;;;2.40;;
74898;SDS011;63458;48.210;16.338;2023-04-25T12:00:18;4.35;;;2.10;;
74898;SDS011;63458;48.210;16.338;2023-04-25T12:02:46;5.60;;;2.47;;
74898;SDS011;63458;48.210;16.338;2023-04-25T12:05:12;5.85;;;2.42;;
74898;SDS011;63458;48.210;16.338;2023-04-25T12:07:39;4.28;;;2.08;;
74898;SDS011;63458;48.210;16.338;2023-04-25T12:12:33;4.90;;;2.60;;
74898;SDS011;63458;48.210;16.338;2023-04-25T12:15:18;5.53;;;2.20;;
74898;SDS011;63458;48.210;16.338;2023-04-25T12:17:49;5.82;;;2.40;;
74898;SDS011;63458;48.210;16.338;2023-04-25T12:20:17;4.80;;;2.40;;
74898;SDS011;63458;48.210;16.338;2023-04-25T12:22:45;4.43;;;2.20;;
74898;SDS011;63458;48.210;16.338;2023-04-25T12:25:56;3.70;;;1.90;;
74898;SDS011;63458;48.210;16.338;2023-04-25T12:33:23;4.53;;;2.40;;
74898;SDS011;63458;48.210;16.338;2023-04-25T12:35:49;4.00;;;1.90;;
74898;SDS011;63458;48.210;16.338;2023-04-25T12:38:25;4.47;;;2.13;;
74898;SDS011;63458;48.210;16.338;2023-04-25T12:40:51;3.28;;;1.77;;
74898;SDS011;63458;48.210;16.338;2023-04-25T12:43:17;3.78;;;1.83;;
74898;SDS011;63458;48.210;16.338;2023-04-25T12:45:50;4.97;;;2.05;;
74898;SDS011;63458;48.210;16.338;2023-04-25T12:48:16;4.35;;;1.90;;
74898;SDS011;63458;48.210;16.338;2023-04-25T12:50:42;3.80;;;1.77;;
74898;SDS011;63458;48.210;16.338;2023-04-25T12:53:09;3.30;;;1.55;;
74898;SDS011;63458;48.210;16.338;2023-04-25T12:55:35;4.32;;;1.90;;
74898;SDS011;63458;48.210;16.338;2023-04-25T12:58:01;5.07;;;1.92;;
74898;SDS011;63458;48.210;16.338;2023-04-25T13:00:28;4.28;;;1.90;;
74898;SDS011;63458;48.210;16.338;2023-04-25T13:02:54;3.58;;;1.98;;
74898;SDS011;63458;48.210;16.338;2023-04-25T13:05:21;5.78;;;2.10;;
74898;SDS011;63458;48.210;16.338;2023-04-25T13:07:47;3.67;;;1.88;;
74898;SDS011;63458;48.210;16.338;2023-04-25T13:10:13;3.17;;;1.65;;
74898;SDS011;63458;48.210;16.338;2023-04-25T13:12:39;3.67;;;1.60;;
74898;SDS011;63458;48.210;16.338;2023-04-25T13:15:05;5.80;;;2.13;;
74898;SDS011;63458;48.210;16.338;2023-04-25T13:17:34;3.42;;;1.83;;
74898;SDS011;63458;48.210;16.338;2023-04-25T13:20:00;4.32;;;1.90;;
74898;SDS011;63458;48.210;16.338;2023-04-25T13:22:26;5.35;;;2.10;;
74898;SDS011;63458;48.210;16.338;2023-04-25T13:24:52;3.83;;;1.70;;
74898;SDS011;63458;48.210;16.338;2023-04-25T13:27:18;3.20;;;1.50;;
74898;SDS011;63458;48.210;16.338;2023-04-25T13:29:44;3.22;;;1.70;;
74898;SDS011;63458;48.210;16.338;2023-04-25T13:32:10;3.42;;;1.40;;
74898;SDS011;63458;48.210;16.338;2023-04-25T13:34:36;3.50;;;1.63;;
74898;SDS011;63458;48.210;16.338;2023-04-25T13:37:02;4.28;;;1.50;;
74898;SDS011;63458;48.210;16.338;2023-04-25T13:39:28;3.47;;;1.67;;
74898;SDS011;63458;48.210;16.338;2023-04-25T13:41:54;3.10;;;1.48;;
74898;SDS011;63458;48.210;16.338;2023-04-25T13:44:21;3.78;;;1.77;;
74898;SDS011;63458;48.210;16.338;2023-04-25T13:46:47;3.42;;;1.67;;
74898;SDS011;63458;48.210;16.338;2023-04-25T13:49:13;4.53;;;1.75;;
74898;SDS011;63458;48.210;16.338;2023-04-25T13:51:39;5.85;;;2.88;;
74898;SDS011;63458;48.210;16.338;2023-04-25T13:54:05;2.60;;;1.75;;
74898;SDS011;63458;48.210;16.338;2023-04-25T13:56:31;4.07;;;2.05;;
74898;SDS011;63458;48.210;16.338;2023-04-25T13:58:57;4.10;;;1.90;;
74898;SDS011;63458;48.210;16.338;2023-04-25T14:01:23;6.28;;;2.25;;
74898;SDS011;63458;48.210;16.338;2023-04-25T14:03:49;6.03;;;2.83;;
74898;SDS011;63458;48.210;16.338;2023-04-25T14:06:15;5.68;;;2.30;;
74898;SDS011;63458;48.210;16.338;2023-04-25T14:08:47;4.60;;;1.90;;
74898;SDS011;63458;48.210;16.338;2023-04-25T14:11:13;3.95;;;1.40;;
74898;SDS011;63458;48.210;16.338;2023-04-25T14:13:39;3.67;;;1.52;;
74898;SDS011;63458;48.210;16.338;2023-04-25T14:16:05;4.93;;;1.48;;
74898;SDS011;63458;48.210;16.338;2023-04-25T14:18:31;3.95;;;1.30;;
74898;SDS011;63458;48.210;16.338;2023-04-25T14:20:57;11.55;;;7.20;;
74898;SDS011;63458;48.210;16.338;2023-04-25T14:23:23;5.10;;;2.10;;
74898;SDS011;63458;48.210;16.338;2023-04-25T14:25:50;5.97;;;2.20;;
74898;SDS011;63458;48.210;16.338;2023-04-25T14:28:16;4.93;;;2.55;;
74898;SDS011;63458;48.210;16.338;2023-04-25T14:30:42;4.47;;;1.90;;
74898;SDS011;63458;48.210;16.338;2023-04-25T14:33:08;25.65;;;18.23;;
74898;SDS011;63458;48.210;16.338;2023-04-25T14:35:34;22.95;;;15.52;;
74898;SDS011;63458;48.210;16.338;2023-04-25T14:38:00;10.55;;;6.80;;
74898;SDS011;63458;48.210;16.338;2023-04-25T14:40:26;5.15;;;2.33;;
74898;SDS011;63458;48.210;16.338;2023-04-25T14:42:53;6.07;;;2.28;;
74898;SDS011;63458;48.210;16.338;2023-04-25T14:45:19;7.63;;;3.70;;
74898;SDS011;63458;48.210;16.338;2023-04-25T14:47:45;7.25;;;3.53;;
74898;SDS011;63458;48.210;16.338;2023-04-25T14:50:11;5.15;;;2.03;;
74898;SDS011;63458;48.210;16.338;2023-04-25T14:52:37;5.45;;;2.20;;
74898;SDS011;63458;48.210;16.338;2023-04-25T14:55:03;3.25;;;1.50;;
74898;SDS011;63458;48.210;16.338;2023-04-25T14:57:32;4.90;;;1.92;;
74898;SDS011;63458;48.210;16.338;2023-04-25T14:59:58;4.25;;;2.00;;